Terminal Aerodrome Forecast
Issued by NWS

Home | Current Version | Previous Version | Graphics & Text | Print | Product List | Glossary On
Versions: 1 2 3 4 5 6 7 8 9 10 11 12 13 14 15 16 17 18 19
000
FTUS43 KGRB 230100 AAA
TAFATW
TAF AMD
KATW 230137Z 2302/2324 34013G20KT P6SM BKN050
     FM230300 34009KT P6SM FEW045
     FM231500 02010G17KT P6SM SCT045
      TEMPO 2316/2320 BKN045=

USA.gov is the U.S. government's official web portal to all federal, state and local government web resources and services.